createdAt,value
2022-09-20T00:01:27.074Z,10.40
2022-09-20T00:03:57.275Z,10.40
2022-09-20T00:06:27.836Z,10.20
2022-09-20T00:08:56.625Z,10.10
2022-09-20T00:11:28.519Z,10.20
2022-09-20T00:13:58.682Z,10.10
2022-09-20T00:16:29.295Z,10.00
2022-09-20T00:18:59.233Z,10.00
2022-09-20T00:21:29.524Z,10.00
2022-09-20T00:23:58.437Z,10.00
2022-09-20T00:26:29.262Z,9.90
2022-09-20T00:28:59.251Z,10.00
2022-09-20T00:31:27.799Z,9.70
2022-09-20T00:34:14.224Z,9.40
2022-09-20T00:36:42.683Z,9.30
2022-09-20T00:39:14.902Z,9.60
2022-09-20T00:41:45.201Z,9.80
2022-09-20T00:44:45.431Z,9.90
2022-09-20T00:47:21.841Z,10.00
2022-09-20T00:49:50.971Z,9.80
2022-09-20T00:52:19.573Z,9.90
2022-09-20T00:54:48.323Z,10.00
2022-09-20T00:57:18.378Z,10.30
2022-09-20T00:59:50.299Z,10.00
2022-09-20T01:02:21.486Z,10.10
2022-09-20T01:04:51.420Z,10.20
2022-09-20T01:07:23.302Z,10.40
2022-09-20T01:09:51.931Z,10.50
2022-09-20T01:12:24.602Z,10.70
2022-09-20T01:14:53.998Z,10.70
2022-09-20T01:17:24.368Z,10.40
2022-09-20T01:20:10.297Z,10.60
2022-09-20T01:22:46.558Z,10.50
2022-09-20T01:25:18.555Z,10.70
2022-09-20T01:27:49.527Z,10.70
2022-09-20T01:30:21.149Z,10.60
2022-09-20T01:33:01.402Z,10.50
2022-09-20T01:35:31.283Z,10.30
2022-09-20T01:38:14.763Z,10.10
2022-09-20T01:40:49.162Z,10.30
2022-09-20T01:43:27.261Z,10.50
2022-09-20T01:45:56.056Z,10.50
2022-09-20T01:48:32.154Z,10.30
2022-09-20T01:51:19.943Z,10.00
2022-09-20T01:54:11.255Z,9.70
2022-09-20T01:57:14.960Z,9.60
2022-09-20T02:00:08.051Z,9.50
2022-09-20T02:03:31.315Z,9.80
2022-09-20T02:06:30.060Z,10.10
2022-09-20T02:09:16.292Z,9.70
2022-09-20T02:12:19.756Z,9.20
2022-09-20T02:14:58.512Z,9.20
2022-09-20T02:17:35.316Z,9.50
2022-09-20T02:20:18.586Z,9.70
2022-09-20T02:22:59.988Z,10.10
2022-09-20T02:25:47.236Z,10.00
2022-09-20T02:28:27.026Z,9.40
2022-09-20T02:31:02.528Z,9.80
2022-09-20T02:33:50.048Z,10.00
2022-09-20T02:36:31.866Z,10.40
2022-09-20T02:39:08.034Z,10.30
2022-09-20T02:41:56.848Z,10.30
2022-09-20T02:44:41.706Z,10.40
2022-09-20T02:47:19.413Z,10.80
2022-09-20T02:50:04.474Z,11.10
2022-09-20T02:52:39.854Z,10.80
2022-09-20T02:55:14.298Z,10.60
2022-09-20T02:57:49.615Z,10.10
2022-09-20T03:00:21.241Z,10.50
2022-09-20T03:03:01.688Z,10.60
2022-09-20T03:05:40.307Z,10.50
2022-09-20T03:08:26.309Z,10.80
2022-09-20T03:11:03.024Z,10.60
2022-09-20T03:13:48.120Z,10.50
2022-09-20T03:16:23.989Z,10.50
2022-09-20T03:19:02.005Z,10.40
2022-09-20T03:21:43.536Z,10.90
2022-09-20T03:24:20.821Z,10.90
2022-09-20T03:26:56.156Z,11.20
2022-09-20T03:29:38.822Z,11.20
2022-09-20T03:32:19.067Z,11.30
2022-09-20T03:34:56.448Z,11.30
2022-09-20T03:37:45.286Z,11.40
2022-09-20T03:40:46.406Z,11.30
2022-09-20T03:43:27.455Z,11.30
2022-09-20T03:46:10.734Z,11.50
2022-09-20T03:49:00.518Z,11.40
2022-09-20T03:51:34.133Z,11.30
2022-09-20T03:54:38.217Z,11.50
2022-09-20T03:57:31.014Z,11.30
2022-09-20T04:00:33.936Z,11.20
2022-09-20T04:03:26.811Z,11.10
2022-09-20T04:06:10.034Z,10.60
2022-09-20T04:08:56.935Z,10.60
2022-09-20T04:11:32.694Z,10.00
2022-09-20T04:14:11.636Z,10.10
2022-09-20T04:16:47.250Z,9.70
2022-09-20T04:19:24.604Z,9.80
2022-09-20T04:21:56.985Z,9.70
2022-09-20T04:24:33.285Z,9.70
2022-09-20T04:27:05.631Z,9.50
2022-09-20T04:29:41.467Z,9.60
2022-09-20T04:32:19.105Z,9.50
2022-09-20T04:35:09.468Z,9.30
2022-09-20T04:37:39.715Z,9.40
2022-09-20T04:40:29.124Z,9.60
2022-09-20T04:43:32.951Z,9.70
2022-09-20T04:46:27.104Z,9.50
2022-09-20T04:49:25.580Z,9.40
2022-09-20T04:52:26.875Z,9.40
2022-09-20T04:55:26.885Z,9.60
2022-09-20T04:58:29.270Z,9.70
2022-09-20T05:01:23.099Z,9.60
2022-09-20T05:04:22.707Z,9.70
2022-09-20T05:07:20.669Z,9.50
2022-09-20T05:10:10.176Z,9.40
2022-09-20T05:13:07.180Z,9.40
2022-09-20T05:15:43.580Z,8.80
2022-09-20T05:18:41.381Z,8.50
2022-09-20T05:21:24.587Z,8.70
2022-09-20T05:24:12.476Z,8.70
2022-09-20T05:26:56.708Z,8.60
2022-09-20T05:29:30.384Z,8.80
2022-09-20T05:32:07.975Z,8.60
2022-09-20T05:34:45.666Z,8.70
2022-09-20T05:37:23.877Z,8.40
2022-09-20T05:39:59.380Z,8.50
2022-09-20T05:42:40.765Z,8.60
2022-09-20T05:45:33.934Z,8.60
2022-09-20T05:48:12.197Z,8.90
2022-09-20T05:50:50.957Z,9.60
2022-09-20T05:53:54.111Z,10.10
2022-09-20T05:56:34.293Z,11.40
2022-09-20T05:59:23.297Z,10.50
2022-09-20T06:02:11.194Z,10.70
2022-09-20T06:04:45.640Z,11.00
2022-09-20T06:07:23.901Z,11.90
2022-09-20T06:10:19.906Z,11.90
2022-09-20T06:12:55.073Z,13.00
2022-09-20T06:15:32.816Z,13.60
2022-09-20T06:18:18.576Z,13.70
2022-09-20T06:20:54.285Z,14.60
2022-09-20T06:23:23.222Z,16.80
2022-09-20T06:25:57.296Z,17.50
2022-09-20T06:28:29.500Z,17.80
2022-09-20T06:30:58.374Z,19.70
2022-09-20T06:33:28.323Z,19.70
2022-09-20T06:36:19.519Z,18.50
2022-09-20T06:39:14.523Z,20.40
2022-09-20T06:41:44.695Z,21.00
2022-09-20T06:44:12.706Z,20.60
2022-09-20T06:46:41.677Z,21.30
2022-09-20T06:49:09.769Z,20.70
2022-09-20T06:51:39.972Z,21.40
2022-09-20T06:54:11.315Z,22.00
2022-09-20T06:56:39.960Z,22.40
2022-09-20T06:59:10.435Z,22.90
2022-09-20T07:01:38.675Z,24.30
2022-09-20T07:04:07.501Z,24.80
2022-09-20T07:06:35.794Z,24.80
2022-09-20T07:09:04.252Z,23.70
2022-09-20T07:11:34.918Z,23.60
2022-09-20T07:14:03.434Z,22.80
2022-09-20T07:16:32.881Z,23.90
2022-09-20T07:19:00.989Z,24.50
2022-09-20T07:21:29.016Z,24.00
2022-09-20T07:23:57.916Z,24.40
2022-09-20T07:26:29.356Z,23.60
2022-09-20T07:28:59.694Z,23.70
2022-09-20T07:31:29.934Z,23.60
2022-09-20T07:33:59.359Z,24.60
2022-09-20T07:36:27.503Z,23.40
2022-09-20T07:38:55.962Z,24.10
2022-09-20T07:41:25.749Z,25.60
2022-09-20T07:43:53.831Z,25.30
2022-09-20T07:46:24.273Z,22.30
2022-09-20T07:48:52.510Z,21.30
2022-09-20T07:51:22.010Z,22.40
2022-09-20T07:53:50.321Z,22.70
2022-09-20T07:56:19.047Z,23.00
2022-09-20T07:58:52.180Z,23.30
2022-09-20T08:01:22.780Z,23.10
2022-09-20T08:03:51.972Z,23.10
2022-09-20T08:06:21.876Z,23.10
2022-09-20T08:08:51.626Z,23.80
2022-09-20T08:11:21.890Z,23.20
2022-09-20T08:14:08.065Z,24.90
2022-09-20T08:16:40.446Z,23.80
2022-09-20T08:19:08.735Z,24.50
2022-09-20T08:21:39.845Z,25.40
2022-09-20T08:24:08.134Z,25.30
2022-09-20T08:26:37.106Z,24.40
2022-09-20T08:29:06.451Z,26.00
2022-09-20T08:31:37.659Z,25.50
2022-09-20T08:34:08.715Z,24.00
2022-09-20T08:36:41.842Z,22.90
2022-09-20T08:42:03.071Z,24.10
2022-09-20T08:44:35.847Z,22.40
2022-09-20T08:47:13.751Z,21.20
2022-09-20T08:49:46.162Z,20.00
2022-09-20T08:52:19.959Z,20.30
2022-09-20T08:54:48.248Z,19.30
2022-09-20T08:57:18.667Z,18.70
2022-09-20T08:59:47.047Z,19.00
2022-09-20T09:02:18.919Z,18.80
2022-09-20T09:04:48.332Z,18.60
2022-09-20T09:07:20.939Z,18.00
2022-09-20T09:09:51.323Z,18.70
2022-09-20T09:12:24.397Z,19.90
2022-09-20T09:14:55.899Z,23.40
2022-09-20T09:17:27.752Z,24.40
2022-09-20T09:19:57.360Z,25.60
2022-09-20T09:22:35.283Z,25.00
2022-09-20T09:25:29.481Z,26.50
2022-09-20T09:27:58.809Z,27.50
2022-09-20T09:30:29.246Z,27.60
2022-09-20T09:33:16.760Z,27.70
2022-09-20T09:35:45.622Z,28.10
2022-09-20T09:38:24.105Z,27.70
2022-09-20T09:40:54.695Z,24.10
2022-09-20T09:43:27.096Z,25.10
2022-09-20T09:45:55.480Z,22.00
2022-09-20T09:48:26.988Z,22.40
2022-09-20T09:51:10.941Z,22.70
2022-09-20T09:53:41.103Z,23.10
2022-09-20T09:56:41.940Z,21.10
2022-09-20T09:59:33.561Z,21.50
2022-09-20T10:02:16.514Z,21.70
2022-09-20T10:04:53.978Z,21.40
2022-09-20T10:07:31.847Z,21.30
2022-09-20T10:10:09.410Z,21.40
2022-09-20T10:12:52.714Z,21.30
2022-09-20T10:15:29.919Z,20.70
2022-09-20T10:18:09.759Z,21.60
2022-09-20T10:20:55.836Z,22.00
2022-09-20T10:24:03.773Z,21.90
2022-09-20T10:27:02.738Z,22.20
2022-09-20T10:29:41.234Z,22.20
2022-09-20T10:32:26.165Z,21.10
2022-09-20T10:35:06.125Z,21.20
2022-09-20T10:37:49.476Z,21.10
2022-09-20T10:40:51.398Z,20.30
2022-09-20T10:43:32.436Z,19.80
2022-09-20T10:46:32.219Z,19.00
2022-09-20T10:49:06.166Z,18.10
2022-09-20T10:51:45.562Z,17.20
2022-09-20T10:54:27.982Z,17.40
2022-09-20T10:57:09.720Z,17.30
2022-09-20T10:59:48.206Z,17.80
2022-09-20T11:02:36.902Z,18.00
2022-09-20T11:05:26.201Z,18.90
2022-09-20T11:08:08.962Z,19.30
2022-09-20T11:10:42.071Z,20.00
2022-09-20T11:13:21.198Z,20.30
2022-09-20T11:15:56.360Z,20.10
2022-09-20T11:18:32.813Z,20.50
2022-09-20T11:21:08.704Z,20.90
2022-09-20T11:23:46.051Z,20.80
2022-09-20T11:26:20.910Z,20.20
2022-09-20T11:28:52.002Z,20.10
2022-09-20T11:31:27.150Z,20.20
2022-09-20T11:34:00.339Z,20.40
2022-09-20T11:36:33.337Z,21.00
2022-09-20T11:39:05.896Z,20.90
2022-09-20T11:41:34.558Z,21.30
2022-09-20T11:44:07.806Z,21.80
2022-09-20T11:46:42.584Z,21.70
2022-09-20T11:49:17.714Z,21.70
2022-09-20T11:52:12.456Z,22.30
2022-09-20T11:55:08.547Z,22.50
2022-09-20T11:57:36.635Z,22.90
2022-09-20T12:00:07.973Z,20.80
2022-09-20T12:02:42.559Z,22.40
2022-09-20T12:05:27.788Z,21.60
2022-09-20T12:07:58.232Z,22.40
2022-09-20T12:10:30.498Z,23.80
2022-09-20T12:13:01.070Z,23.20
2022-09-20T12:15:33.007Z,25.00
2022-09-20T12:18:29.426Z,23.10
2022-09-20T12:21:02.598Z,23.30
2022-09-20T12:24:02.809Z,23.30
2022-09-20T12:26:45.779Z,24.00
2022-09-20T12:29:57.317Z,23.80
2022-09-20T12:32:44.897Z,21.50
2022-09-20T12:36:00.640Z,20.90
2022-09-20T12:38:46.472Z,20.40
2022-09-20T12:41:27.563Z,20.10
2022-09-20T12:44:00.492Z,19.30
2022-09-20T12:46:37.976Z,18.60
2022-09-20T12:49:59.081Z,19.10
2022-09-20T12:53:01.121Z,19.10
2022-09-20T12:55:49.745Z,18.10
2022-09-20T12:58:27.987Z,17.60
2022-09-20T13:01:32.315Z,18.10
2022-09-20T13:04:37.757Z,17.70
2022-09-20T13:07:38.938Z,17.40
2022-09-20T13:10:26.229Z,17.60
2022-09-20T13:13:01.230Z,17.60
2022-09-20T13:15:29.624Z,17.80
2022-09-20T13:18:00.702Z,18.10
2022-09-20T13:20:31.433Z,17.40
2022-09-20T13:23:01.163Z,17.60
2022-09-20T13:25:30.360Z,17.20
2022-09-20T13:28:08.356Z,17.70
2022-09-20T13:30:36.992Z,18.10
2022-09-20T13:33:22.378Z,18.20
2022-09-20T13:35:54.507Z,18.50
2022-09-20T13:38:25.378Z,18.20
2022-09-20T13:40:55.066Z,18.20
2022-09-20T13:43:29.257Z,18.30
2022-09-20T13:46:00.286Z,18.20
2022-09-20T13:48:29.669Z,18.40
2022-09-20T13:50:58.571Z,18.90
2022-09-20T13:53:41.120Z,19.30
2022-09-20T13:56:12.681Z,19.40
2022-09-20T13:58:42.923Z,19.70
2022-09-20T14:01:24.408Z,19.40
2022-09-20T14:03:53.880Z,18.90
2022-09-20T14:06:27.107Z,19.20
2022-09-20T14:08:55.703Z,19.40
2022-09-20T14:11:27.942Z,19.20
2022-09-20T14:13:59.130Z,19.20
2022-09-20T14:16:32.087Z,18.70
2022-09-20T14:19:00.991Z,19.00
2022-09-20T14:21:32.931Z,18.70
2022-09-20T14:24:03.635Z,19.20
2022-09-20T14:26:34.824Z,18.80
2022-09-20T14:29:31.605Z,18.70
2022-09-20T14:32:01.214Z,18.60
2022-09-20T14:34:29.662Z,19.00
2022-09-20T14:37:08.440Z,18.50
2022-09-20T14:39:44.885Z,17.90
2022-09-20T14:42:21.074Z,18.30
2022-09-20T14:44:53.423Z,18.20
2022-09-20T14:47:29.429Z,18.00
2022-09-20T14:49:59.094Z,18.20
2022-09-20T14:52:38.835Z,18.30
2022-09-20T14:55:28.247Z,18.60
2022-09-20T14:58:01.409Z,19.40
2022-09-20T15:00:31.229Z,19.20
2022-09-20T15:03:06.746Z,18.50
2022-09-20T15:05:34.815Z,18.10
2022-09-20T15:08:03.737Z,17.90
2022-09-20T15:10:31.935Z,17.60
2022-09-20T15:13:00.021Z,17.20
2022-09-20T15:15:28.200Z,17.60
2022-09-20T15:17:57.618Z,18.30
2022-09-20T15:20:25.969Z,18.60
2022-09-20T15:22:54.126Z,18.50
2022-09-20T15:25:22.774Z,18.80
2022-09-20T15:27:51.802Z,19.00
2022-09-20T15:30:21.038Z,19.10
2022-09-20T15:32:49.572Z,18.90
2022-09-20T15:35:19.152Z,18.50
2022-09-20T15:37:47.170Z,18.00
2022-09-20T15:40:15.590Z,17.30
2022-09-20T15:42:43.968Z,17.50
2022-09-20T15:45:13.413Z,17.80
2022-09-20T15:47:41.716Z,17.80
2022-09-20T15:50:10.894Z,18.20
2022-09-20T15:52:41.621Z,17.90
2022-09-20T15:55:10.910Z,18.10
2022-09-20T15:57:39.530Z,17.50
2022-09-20T16:00:09.162Z,17.40
2022-09-20T16:02:37.479Z,17.50
2022-09-20T16:05:06.208Z,17.40
2022-09-20T16:07:34.355Z,17.20
2022-09-20T16:10:03.937Z,17.20
2022-09-20T16:12:31.979Z,17.20
2022-09-20T16:15:00.018Z,17.30
2022-09-20T16:17:41.962Z,17.20
2022-09-20T16:20:10.913Z,17.00
2022-09-20T16:22:38.941Z,17.10
2022-09-20T16:25:09.341Z,17.00
2022-09-20T16:27:37.391Z,16.90
2022-09-20T16:30:06.143Z,16.90
2022-09-20T16:32:34.516Z,16.70
2022-09-20T16:35:03.944Z,16.60
2022-09-20T16:37:32.786Z,16.50
2022-09-20T16:40:01.137Z,16.40
2022-09-20T16:42:30.627Z,16.20
2022-09-20T16:44:58.809Z,16.10
2022-09-20T16:47:26.867Z,16.10
2022-09-20T16:49:54.969Z,16.00
2022-09-20T16:52:24.448Z,15.90
2022-09-20T16:54:52.490Z,15.70
2022-09-20T16:57:22.356Z,15.50
2022-09-20T16:59:54.199Z,15.30
2022-09-20T17:02:22.295Z,14.80
2022-09-20T17:04:50.441Z,14.70
2022-09-20T17:07:18.528Z,14.60
2022-09-20T17:09:46.603Z,14.70
2022-09-20T17:12:18.737Z,14.70
2022-09-20T17:14:46.842Z,14.60
2022-09-20T17:17:16.284Z,14.40
2022-09-20T17:19:44.313Z,14.30
2022-09-20T17:22:12.388Z,14.10
2022-09-20T17:24:40.535Z,14.00
2022-09-20T17:27:09.371Z,13.90
2022-09-20T17:29:37.407Z,13.90
2022-09-20T17:32:05.566Z,13.90
2022-09-20T17:34:35.526Z,13.70
2022-09-20T17:37:04.731Z,13.60
2022-09-20T17:39:32.875Z,13.50
2022-09-20T17:42:01.455Z,13.50
2022-09-20T17:44:29.879Z,13.20
2022-09-20T17:46:57.984Z,13.20
2022-09-20T17:49:27.667Z,13.00
2022-09-20T17:51:57.472Z,12.80
2022-09-20T17:54:26.256Z,12.70
2022-09-20T17:56:55.941Z,12.60
2022-09-20T17:59:24.572Z,12.50
2022-09-20T18:01:54.305Z,12.40
2022-09-20T18:04:24.542Z,12.20
2022-09-20T18:06:54.235Z,12.10
2022-09-20T18:09:25.366Z,11.80
2022-09-20T18:11:54.764Z,11.70
2022-09-20T18:14:24.172Z,11.50
2022-09-20T18:16:53.859Z,11.30
2022-09-20T18:19:22.785Z,11.30
2022-09-20T18:21:51.251Z,11.30
2022-09-20T18:24:19.447Z,11.10
2022-09-20T18:26:48.840Z,11.20
2022-09-20T18:29:17.923Z,11.10
2022-09-20T18:31:48.762Z,11.20
2022-09-20T18:34:18.840Z,11.20
2022-09-20T18:36:52.869Z,11.20
2022-09-20T18:39:21.783Z,11.30
2022-09-20T18:41:53.096Z,11.30
2022-09-20T18:44:22.548Z,11.20
2022-09-20T18:46:54.847Z,11.10
2022-09-20T18:49:23.616Z,10.70
2022-09-20T18:51:51.781Z,10.60
2022-09-20T18:54:20.060Z,10.60
2022-09-20T18:56:51.529Z,10.60
2022-09-20T18:59:21.784Z,10.80
2022-09-20T19:02:24.018Z,10.80
2022-09-20T19:05:17.215Z,10.70
2022-09-20T19:07:55.031Z,10.70
2022-09-20T19:10:31.405Z,10.50
2022-09-20T19:13:07.294Z,10.30
2022-09-20T19:15:47.582Z,10.40
2022-09-20T19:18:44.339Z,10.60
2022-09-20T19:21:22.465Z,10.70
2022-09-20T19:24:03.510Z,10.70
2022-09-20T19:26:37.888Z,10.50
2022-09-20T19:29:20.167Z,10.60
2022-09-20T19:31:49.663Z,10.60
2022-09-20T19:34:21.810Z,10.20
2022-09-20T19:37:01.832Z,10.30
2022-09-20T19:39:43.406Z,10.20
2022-09-20T19:42:20.005Z,10.20
2022-09-20T19:45:03.799Z,10.40
2022-09-20T19:47:42.338Z,10.30
2022-09-20T19:50:16.892Z,10.20
2022-09-20T19:52:45.736Z,10.20
2022-09-20T19:55:15.204Z,10.00
2022-09-20T19:57:46.981Z,9.90
2022-09-20T20:00:19.297Z,9.90
2022-09-20T20:02:48.469Z,10.00
2022-09-20T20:05:19.142Z,9.90
2022-09-20T20:07:53.475Z,10.00
2022-09-20T20:10:29.082Z,9.90
2022-09-20T20:13:27.607Z,9.90
2022-09-20T20:16:02.368Z,10.00
2022-09-20T20:18:38.925Z,10.20
2022-09-20T20:21:14.234Z,10.10
2022-09-20T20:24:00.539Z,10.00
2022-09-20T20:26:28.735Z,9.70
2022-09-20T20:28:56.796Z,9.50
2022-09-20T20:31:26.274Z,9.50
2022-09-20T20:33:55.440Z,9.60
2022-09-20T20:36:23.559Z,9.70
2022-09-20T20:38:53.094Z,9.70
2022-09-20T20:41:22.304Z,9.70
2022-09-20T20:43:57.131Z,9.70
2022-09-20T20:46:27.029Z,9.80
2022-09-20T20:48:55.144Z,9.70
2022-09-20T20:51:24.342Z,9.70
2022-09-20T20:53:55.038Z,9.70
2022-09-20T20:56:25.642Z,9.40
2022-09-20T20:58:54.314Z,9.30
2022-09-20T21:01:25.282Z,9.20
2022-09-20T21:03:56.057Z,9.20
2022-09-20T21:06:26.111Z,9.20
2022-09-20T21:08:54.170Z,9.30
2022-09-20T21:11:24.160Z,9.20
2022-09-20T21:13:52.607Z,9.10
2022-09-20T21:16:22.948Z,8.90
2022-09-20T21:18:51.653Z,8.70
2022-09-20T21:21:23.016Z,8.80
2022-09-20T21:23:52.824Z,8.90
2022-09-20T21:26:21.838Z,9.00
2022-09-20T21:28:53.078Z,9.10
2022-09-20T21:31:24.094Z,9.30
2022-09-20T21:33:52.309Z,9.20
2022-09-20T21:36:23.950Z,9.30
2022-09-20T21:38:52.303Z,9.20
2022-09-20T21:41:23.127Z,9.10
2022-09-20T21:43:54.877Z,9.00
2022-09-20T21:46:28.333Z,9.10
2022-09-20T21:48:57.670Z,9.20
2022-09-20T21:51:29.760Z,8.80
2022-09-20T21:53:59.570Z,8.10
2022-09-20T21:56:30.349Z,7.90
2022-09-20T21:58:59.078Z,8.20
2022-09-20T22:01:28.606Z,8.30
2022-09-20T22:04:00.121Z,8.60
2022-09-20T22:06:31.301Z,8.80
2022-09-20T22:09:01.559Z,8.90
2022-09-20T22:11:31.377Z,8.90
2022-09-20T22:14:00.184Z,9.10
2022-09-20T22:16:29.891Z,8.90
2022-09-20T22:18:59.646Z,8.90
2022-09-20T22:21:31.396Z,8.90
2022-09-20T22:24:01.739Z,8.80
2022-09-20T22:26:32.001Z,8.60
2022-09-20T22:29:00.651Z,8.40
2022-09-20T22:31:30.692Z,8.70
2022-09-20T22:34:01.007Z,8.50
2022-09-20T22:36:32.666Z,8.50
2022-09-20T22:39:00.989Z,8.60
2022-09-20T22:41:29.373Z,8.60
2022-09-20T22:43:57.764Z,8.50
2022-09-20T22:46:28.142Z,8.40
2022-09-20T22:48:56.727Z,8.40
2022-09-20T22:51:26.683Z,8.40
2022-09-20T22:53:56.699Z,8.50
2022-09-20T22:56:28.174Z,8.50
2022-09-20T22:59:00.008Z,8.70
2022-09-20T23:01:30.305Z,8.60
2022-09-20T23:04:00.128Z,8.80
2022-09-20T23:06:31.027Z,8.70
2022-09-20T23:09:02.517Z,8.60
2022-09-20T23:11:31.468Z,8.80
2022-09-20T23:14:01.546Z,9.00
2022-09-20T23:16:31.863Z,8.90
2022-09-20T23:19:01.561Z,8.70
2022-09-20T23:21:31.242Z,8.20
2022-09-20T23:24:02.576Z,7.60
2022-09-20T23:26:32.401Z,7.60
2022-09-20T23:29:02.469Z,7.40
2022-09-20T23:31:32.258Z,7.40
2022-09-20T23:34:02.234Z,7.50
2022-09-20T23:36:32.970Z,7.60
2022-09-20T23:39:02.671Z,8.00
2022-09-20T23:41:31.024Z,8.10
2022-09-20T23:43:59.528Z,8.00
2022-09-20T23:46:28.589Z,7.90
2022-09-20T23:48:56.931Z,7.90
2022-09-20T23:51:26.869Z,8.00
2022-09-20T23:53:56.117Z,8.30
2022-09-20T23:56:26.853Z,8.50
2022-09-20T23:58:55.344Z,8.60
